sensor_id;sensor_type;location;lat;lon;timestamp;P1;durP1;ratioP1;P2;durP2;ratioP2
40847;SDS011;26570;50.962;5.340;2024-03-08T00:00:29;38.53;;;18.97;;
40847;SDS011;26570;50.962;5.340;2024-03-08T00:03:17;38.00;;;18.77;;
40847;SDS011;26570;50.962;5.340;2024-03-08T00:06:02;38.77;;;18.83;;
40847;SDS011;26570;50.962;5.340;2024-03-08T00:08:49;34.47;;;19.20;;
40847;SDS011;26570;50.962;5.340;2024-03-08T00:11:34;35.03;;;18.93;;
40847;SDS011;26570;50.962;5.340;2024-03-08T00:14:19;33.93;;;19.37;;
40847;SDS011;26570;50.962;5.340;2024-03-08T00:17:06;37.13;;;19.77;;
40847;SDS011;26570;50.962;5.340;2024-03-08T00:19:51;38.13;;;20.60;;
40847;SDS011;26570;50.962;5.340;2024-03-08T00:22:37;36.00;;;19.83;;
40847;SDS011;26570;50.962;5.340;2024-03-08T00:25:22;34.20;;;19.00;;
40847;SDS011;26570;50.962;5.340;2024-03-08T00:28:08;34.83;;;19.90;;
40847;SDS011;26570;50.962;5.340;2024-03-08T00:30:57;33.07;;;19.57;;
40847;SDS011;26570;50.962;5.340;2024-03-08T00:34:07;35.50;;;19.43;;
40847;SDS011;26570;50.962;5.340;2024-03-08T00:36:55;45.50;;;21.27;;
40847;SDS011;26570;50.962;5.340;2024-03-08T00:39:41;38.73;;;21.73;;
40847;SDS011;26570;50.962;5.340;2024-03-08T00:42:27;35.10;;;20.70;;
40847;SDS011;26570;50.962;5.340;2024-03-08T00:45:12;32.70;;;20.03;;
40847;SDS011;26570;50.962;5.340;2024-03-08T00:47:57;39.87;;;21.70;;
40847;SDS011;26570;50.962;5.340;2024-03-08T00:50:48;40.03;;;23.20;;
40847;SDS011;26570;50.962;5.340;2024-03-08T00:53:34;36.27;;;22.07;;
40847;SDS011;26570;50.962;5.340;2024-03-08T00:56:22;40.47;;;21.17;;
40847;SDS011;26570;50.962;5.340;2024-03-08T00:59:09;39.23;;;22.60;;
40847;SDS011;26570;50.962;5.340;2024-03-08T01:01:54;39.87;;;22.13;;
40847;SDS011;26570;50.962;5.340;2024-03-08T01:04:40;38.53;;;22.70;;
40847;SDS011;26570;50.962;5.340;2024-03-08T01:07:26;37.53;;;22.50;;
40847;SDS011;26570;50.962;5.340;2024-03-08T01:10:15;40.37;;;22.57;;
40847;SDS011;26570;50.962;5.340;2024-03-08T01:12:59;38.27;;;22.23;;
40847;SDS011;26570;50.962;5.340;2024-03-08T01:15:45;39.83;;;22.53;;
40847;SDS011;26570;50.962;5.340;2024-03-08T01:18:30;35.80;;;22.60;;
40847;SDS011;26570;50.962;5.340;2024-03-08T01:21:15;39.43;;;22.80;;
40847;SDS011;26570;50.962;5.340;2024-03-08T01:24:00;37.23;;;22.47;;
40847;SDS011;26570;50.962;5.340;2024-03-08T01:26:53;38.93;;;23.57;;
40847;SDS011;26570;50.962;5.340;2024-03-08T01:29:38;37.57;;;23.10;;
40847;SDS011;26570;50.962;5.340;2024-03-08T01:32:24;38.80;;;22.47;;
40847;SDS011;26570;50.962;5.340;2024-03-08T01:35:09;39.53;;;23.47;;
40847;SDS011;26570;50.962;5.340;2024-03-08T01:37:55;40.77;;;23.63;;
40847;SDS011;26570;50.962;5.340;2024-03-08T01:40:40;44.20;;;23.93;;
40847;SDS011;26570;50.962;5.340;2024-03-08T01:43:27;48.97;;;24.80;;
40847;SDS011;26570;50.962;5.340;2024-03-08T01:46:37;37.30;;;23.00;;
40847;SDS011;26570;50.962;5.340;2024-03-08T01:49:23;39.70;;;23.60;;
40847;SDS011;26570;50.962;5.340;2024-03-08T01:52:10;41.77;;;22.87;;
40847;SDS011;26570;50.962;5.340;2024-03-08T01:54:57;43.93;;;24.20;;
40847;SDS011;26570;50.962;5.340;2024-03-08T01:58:09;41.53;;;23.27;;
40847;SDS011;26570;50.962;5.340;2024-03-08T02:01:18;37.87;;;22.83;;
40847;SDS011;26570;50.962;5.340;2024-03-08T02:04:04;45.23;;;21.90;;
40847;SDS011;26570;50.962;5.340;2024-03-08T02:07:16;38.73;;;23.40;;
40847;SDS011;26570;50.962;5.340;2024-03-08T02:10:02;41.47;;;24.03;;
40847;SDS011;26570;50.962;5.340;2024-03-08T02:12:48;47.60;;;25.30;;
40847;SDS011;26570;50.962;5.340;2024-03-08T02:15:56;47.30;;;25.13;;
40847;SDS011;26570;50.962;5.340;2024-03-08T02:18:45;46.90;;;25.30;;
40847;SDS011;26570;50.962;5.340;2024-03-08T02:21:32;42.37;;;24.43;;
40847;SDS011;26570;50.962;5.340;2024-03-08T02:24:22;40.53;;;24.27;;
40847;SDS011;26570;50.962;5.340;2024-03-08T02:27:08;47.40;;;25.90;;
40847;SDS011;26570;50.962;5.340;2024-03-08T02:29:56;40.57;;;25.50;;
40847;SDS011;26570;50.962;5.340;2024-03-08T02:32:42;40.27;;;25.03;;
40847;SDS011;26570;50.962;5.340;2024-03-08T02:35:28;43.67;;;24.60;;
40847;SDS011;26570;50.962;5.340;2024-03-08T02:38:14;47.10;;;26.47;;
40847;SDS011;26570;50.962;5.340;2024-03-08T02:41:00;44.67;;;24.97;;
40847;SDS011;26570;50.962;5.340;2024-03-08T02:43:45;43.17;;;24.60;;
40847;SDS011;26570;50.962;5.340;2024-03-08T02:46:30;42.93;;;24.40;;
40847;SDS011;26570;50.962;5.340;2024-03-08T02:49:38;45.07;;;24.80;;
40847;SDS011;26570;50.962;5.340;2024-03-08T02:52:23;45.50;;;26.00;;
40847;SDS011;26570;50.962;5.340;2024-03-08T02:55:09;43.73;;;24.40;;
40847;SDS011;26570;50.962;5.340;2024-03-08T02:57:55;48.80;;;24.03;;
40847;SDS011;26570;50.962;5.340;2024-03-08T03:01:03;44.80;;;23.97;;
40847;SDS011;26570;50.962;5.340;2024-03-08T03:03:50;44.13;;;23.97;;
40847;SDS011;26570;50.962;5.340;2024-03-08T03:06:35;46.70;;;24.90;;
40847;SDS011;26570;50.962;5.340;2024-03-08T03:09:20;44.60;;;25.27;;
40847;SDS011;26570;50.962;5.340;2024-03-08T03:12:11;39.27;;;23.47;;
40847;SDS011;26570;50.962;5.340;2024-03-08T03:14:57;43.13;;;25.17;;
40847;SDS011;26570;50.962;5.340;2024-03-08T03:17:45;46.63;;;25.87;;
40847;SDS011;26570;50.962;5.340;2024-03-08T03:20:32;47.23;;;25.97;;
40847;SDS011;26570;50.962;5.340;2024-03-08T03:23:17;45.03;;;25.07;;
40847;SDS011;26570;50.962;5.340;2024-03-08T03:26:04;45.63;;;26.20;;
40847;SDS011;26570;50.962;5.340;2024-03-08T03:28:52;43.13;;;24.20;;
40847;SDS011;26570;50.962;5.340;2024-03-08T03:31:38;47.63;;;23.77;;
40847;SDS011;26570;50.962;5.340;2024-03-08T03:34:47;42.67;;;24.50;;
40847;SDS011;26570;50.962;5.340;2024-03-08T03:37:31;43.63;;;25.27;;
40847;SDS011;26570;50.962;5.340;2024-03-08T03:40:20;44.40;;;23.60;;
40847;SDS011;26570;50.962;5.340;2024-03-08T03:43:07;47.70;;;24.33;;
40847;SDS011;26570;50.962;5.340;2024-03-08T03:45:53;45.83;;;24.30;;
40847;SDS011;26570;50.962;5.340;2024-03-08T03:48:40;45.70;;;26.40;;
40847;SDS011;26570;50.962;5.340;2024-03-08T03:51:26;42.97;;;23.43;;
40847;SDS011;26570;50.962;5.340;2024-03-08T03:54:13;47.20;;;24.77;;
40847;SDS011;26570;50.962;5.340;2024-03-08T03:56:58;46.47;;;25.33;;
40847;SDS011;26570;50.962;5.340;2024-03-08T03:59:44;48.57;;;24.53;;
40847;SDS011;26570;50.962;5.340;2024-03-08T04:02:32;43.03;;;24.27;;
40847;SDS011;26570;50.962;5.340;2024-03-08T04:05:17;46.27;;;24.53;;
40847;SDS011;26570;50.962;5.340;2024-03-08T04:08:03;47.23;;;24.40;;
40847;SDS011;26570;50.962;5.340;2024-03-08T04:11:23;43.10;;;23.10;;
40847;SDS011;26570;50.962;5.340;2024-03-08T04:14:08;46.43;;;25.20;;
40847;SDS011;26570;50.962;5.340;2024-03-08T04:16:55;47.00;;;23.70;;
40847;SDS011;26570;50.962;5.340;2024-03-08T04:19:42;47.53;;;25.60;;
40847;SDS011;26570;50.962;5.340;2024-03-08T04:22:29;42.87;;;23.90;;
40847;SDS011;26570;50.962;5.340;2024-03-08T04:25:14;46.20;;;23.60;;
40847;SDS011;26570;50.962;5.340;2024-03-08T04:28:00;48.40;;;24.43;;
40847;SDS011;26570;50.962;5.340;2024-03-08T04:30:45;47.30;;;25.03;;
40847;SDS011;26570;50.962;5.340;2024-03-08T04:33:30;45.73;;;23.87;;
40847;SDS011;26570;50.962;5.340;2024-03-08T04:36:16;46.23;;;24.50;;
40847;SDS011;26570;50.962;5.340;2024-03-08T04:39:02;48.30;;;24.67;;
40847;SDS011;26570;50.962;5.340;2024-03-08T04:41:47;41.90;;;23.20;;
40847;SDS011;26570;50.962;5.340;2024-03-08T04:44:34;47.90;;;25.63;;
40847;SDS011;26570;50.962;5.340;2024-03-08T04:47:20;45.73;;;24.13;;
40847;SDS011;26570;50.962;5.340;2024-03-08T04:50:27;42.50;;;22.97;;
40847;SDS011;26570;50.962;5.340;2024-03-08T04:53:13;43.27;;;23.17;;
40847;SDS011;26570;50.962;5.340;2024-03-08T04:55:59;49.23;;;24.23;;
40847;SDS011;26570;50.962;5.340;2024-03-08T04:58:44;49.17;;;25.40;;
40847;SDS011;26570;50.962;5.340;2024-03-08T05:01:35;48.97;;;24.97;;
40847;SDS011;26570;50.962;5.340;2024-03-08T05:04:22;45.20;;;23.30;;
40847;SDS011;26570;50.962;5.340;2024-03-08T05:07:09;52.80;;;23.67;;
40847;SDS011;26570;50.962;5.340;2024-03-08T05:09:54;48.40;;;23.97;;
40847;SDS011;26570;50.962;5.340;2024-03-08T05:12:40;44.83;;;23.43;;
40847;SDS011;26570;50.962;5.340;2024-03-08T05:15:26;49.43;;;24.73;;
40847;SDS011;26570;50.962;5.340;2024-03-08T05:18:11;47.83;;;23.77;;
40847;SDS011;26570;50.962;5.340;2024-03-08T05:20:58;50.23;;;24.77;;
40847;SDS011;26570;50.962;5.340;2024-03-08T05:23:44;49.60;;;23.70;;
40847;SDS011;26570;50.962;5.340;2024-03-08T05:26:29;49.90;;;22.10;;
40847;SDS011;26570;50.962;5.340;2024-03-08T05:29:14;47.50;;;24.03;;
40847;SDS011;26570;50.962;5.340;2024-03-08T05:31:59;47.97;;;23.83;;
40847;SDS011;26570;50.962;5.340;2024-03-08T05:34:46;46.57;;;22.37;;
40847;SDS011;26570;50.962;5.340;2024-03-08T05:37:32;48.03;;;22.93;;
40847;SDS011;26570;50.962;5.340;2024-03-08T05:40:17;50.93;;;24.17;;
40847;SDS011;26570;50.962;5.340;2024-03-08T05:43:03;51.90;;;24.30;;
40847;SDS011;26570;50.962;5.340;2024-03-08T05:46:15;46.63;;;23.97;;
40847;SDS011;26570;50.962;5.340;2024-03-08T05:49:05;52.00;;;25.43;;
40847;SDS011;26570;50.962;5.340;2024-03-08T05:51:51;44.97;;;23.03;;
40847;SDS011;26570;50.962;5.340;2024-03-08T05:54:38;47.93;;;24.40;;
40847;SDS011;26570;50.962;5.340;2024-03-08T05:57:23;48.83;;;24.70;;
40847;SDS011;26570;50.962;5.340;2024-03-08T06:00:08;45.30;;;22.80;;
40847;SDS011;26570;50.962;5.340;2024-03-08T06:03:22;49.87;;;24.67;;
40847;SDS011;26570;50.962;5.340;2024-03-08T06:06:07;45.50;;;22.93;;
40847;SDS011;26570;50.962;5.340;2024-03-08T06:08:53;44.87;;;23.00;;
40847;SDS011;26570;50.962;5.340;2024-03-08T06:11:40;42.27;;;22.53;;
40847;SDS011;26570;50.962;5.340;2024-03-08T06:14:27;49.37;;;24.40;;
40847;SDS011;26570;50.962;5.340;2024-03-08T06:17:12;50.97;;;23.27;;
40847;SDS011;26570;50.962;5.340;2024-03-08T06:19:57;46.67;;;22.60;;
40847;SDS011;26570;50.962;5.340;2024-03-08T06:22:44;51.33;;;23.67;;
40847;SDS011;26570;50.962;5.340;2024-03-08T06:25:29;44.90;;;22.77;;
40847;SDS011;26570;50.962;5.340;2024-03-08T06:28:14;50.53;;;22.70;;
40847;SDS011;26570;50.962;5.340;2024-03-08T06:30:59;43.50;;;21.27;;
40847;SDS011;26570;50.962;5.340;2024-03-08T06:33:45;48.17;;;23.70;;
40847;SDS011;26570;50.962;5.340;2024-03-08T06:36:30;44.20;;;22.73;;
40847;SDS011;26570;50.962;5.340;2024-03-08T06:39:37;44.63;;;22.63;;
40847;SDS011;26570;50.962;5.340;2024-03-08T06:42:22;45.67;;;22.50;;
40847;SDS011;26570;50.962;5.340;2024-03-08T06:45:07;45.37;;;21.97;;
40847;SDS011;26570;50.962;5.340;2024-03-08T06:47:54;45.90;;;23.70;;
40847;SDS011;26570;50.962;5.340;2024-03-08T06:53:47;48.67;;;22.40;;
40847;SDS011;26570;50.962;5.340;2024-03-08T06:56:33;44.37;;;22.10;;
40847;SDS011;26570;50.962;5.340;2024-03-08T07:03:11;43.63;;;22.50;;
40847;SDS011;26570;50.962;5.340;2024-03-08T07:06:01;41.73;;;20.70;;
40847;SDS011;26570;50.962;5.340;2024-03-08T07:08:46;39.20;;;20.97;;
40847;SDS011;26570;50.962;5.340;2024-03-08T07:11:32;36.90;;;20.60;;
40847;SDS011;26570;50.962;5.340;2024-03-08T07:14:19;37.83;;;20.23;;
40847;SDS011;26570;50.962;5.340;2024-03-08T07:17:07;36.37;;;19.60;;
40847;SDS011;26570;50.962;5.340;2024-03-08T07:19:55;40.77;;;20.67;;
40847;SDS011;26570;50.962;5.340;2024-03-08T07:22:43;34.23;;;19.23;;
40847;SDS011;26570;50.962;5.340;2024-03-08T07:25:31;36.67;;;19.90;;
40847;SDS011;26570;50.962;5.340;2024-03-08T07:28:16;29.27;;;17.77;;
40847;SDS011;26570;50.962;5.340;2024-03-08T07:31:02;34.80;;;17.47;;
40847;SDS011;26570;50.962;5.340;2024-03-08T07:36:42;30.60;;;16.13;;
40847;SDS011;26570;50.962;5.340;2024-03-08T07:39:27;34.20;;;17.07;;
40847;SDS011;26570;50.962;5.340;2024-03-08T07:42:13;34.97;;;19.03;;
40847;SDS011;26570;50.962;5.340;2024-03-08T07:44:58;32.37;;;18.43;;
40847;SDS011;26570;50.962;5.340;2024-03-08T07:48:06;33.10;;;17.43;;
40847;SDS011;26570;50.962;5.340;2024-03-08T07:50:54;33.63;;;18.57;;
40847;SDS011;26570;50.962;5.340;2024-03-08T07:53:39;31.03;;;15.53;;
40847;SDS011;26570;50.962;5.340;2024-03-08T07:56:47;25.30;;;16.03;;
40847;SDS011;26570;50.962;5.340;2024-03-08T07:59:32;26.57;;;16.57;;
40847;SDS011;26570;50.962;5.340;2024-03-08T08:02:17;30.23;;;16.73;;
40847;SDS011;26570;50.962;5.340;2024-03-08T08:05:02;27.43;;;16.37;;
40847;SDS011;26570;50.962;5.340;2024-03-08T08:07:48;27.30;;;16.40;;
40847;SDS011;26570;50.962;5.340;2024-03-08T08:10:34;28.73;;;16.20;;
40847;SDS011;26570;50.962;5.340;2024-03-08T08:13:19;29.60;;;15.83;;
40847;SDS011;26570;50.962;5.340;2024-03-08T08:16:04;26.33;;;15.37;;
40847;SDS011;26570;50.962;5.340;2024-03-08T08:18:53;31.80;;;16.37;;
40847;SDS011;26570;50.962;5.340;2024-03-08T08:21:40;29.00;;;15.77;;
40847;SDS011;26570;50.962;5.340;2024-03-08T08:24:26;26.13;;;15.27;;
40847;SDS011;26570;50.962;5.340;2024-03-08T08:27:33;29.23;;;16.63;;
40847;SDS011;26570;50.962;5.340;2024-03-08T08:30:22;27.13;;;14.90;;
40847;SDS011;26570;50.962;5.340;2024-03-08T08:33:07;26.17;;;15.30;;
40847;SDS011;26570;50.962;5.340;2024-03-08T08:35:52;31.73;;;16.40;;
40847;SDS011;26570;50.962;5.340;2024-03-08T08:38:38;25.10;;;14.73;;
40847;SDS011;26570;50.962;5.340;2024-03-08T08:41:23;30.40;;;16.47;;
40847;SDS011;26570;50.962;5.340;2024-03-08T08:44:09;27.23;;;15.10;;
40847;SDS011;26570;50.962;5.340;2024-03-08T08:46:56;24.33;;;14.70;;
40847;SDS011;26570;50.962;5.340;2024-03-08T08:49:43;27.50;;;14.90;;
40847;SDS011;26570;50.962;5.340;2024-03-08T08:52:29;23.13;;;14.30;;
40847;SDS011;26570;50.962;5.340;2024-03-08T08:55:14;22.00;;;15.03;;
40847;SDS011;26570;50.962;5.340;2024-03-08T08:57:59;25.60;;;15.73;;
40847;SDS011;26570;50.962;5.340;2024-03-08T09:00:45;24.73;;;13.93;;
40847;SDS011;26570;50.962;5.340;2024-03-08T09:03:31;27.57;;;16.00;;
40847;SDS011;26570;50.962;5.340;2024-03-08T09:06:25;25.63;;;15.00;;
40847;SDS011;26570;50.962;5.340;2024-03-08T09:09:15;25.30;;;14.83;;
40847;SDS011;26570;50.962;5.340;2024-03-08T09:15:41;26.23;;;16.03;;
40847;SDS011;26570;50.962;5.340;2024-03-08T09:18:26;23.10;;;14.40;;
40847;SDS011;26570;50.962;5.340;2024-03-08T09:21:11;24.50;;;15.20;;
40847;SDS011;26570;50.962;5.340;2024-03-08T09:23:57;23.20;;;14.00;;
40847;SDS011;26570;50.962;5.340;2024-03-08T09:26:42;22.07;;;14.77;;
40847;SDS011;26570;50.962;5.340;2024-03-08T09:29:27;21.07;;;13.27;;
40847;SDS011;26570;50.962;5.340;2024-03-08T09:32:35;25.67;;;15.13;;
40847;SDS011;26570;50.962;5.340;2024-03-08T09:35:21;25.10;;;13.87;;
40847;SDS011;26570;50.962;5.340;2024-03-08T09:38:06;22.97;;;13.70;;
40847;SDS011;26570;50.962;5.340;2024-03-08T09:40:55;23.13;;;13.43;;
40847;SDS011;26570;50.962;5.340;2024-03-08T09:43:40;22.93;;;14.50;;
40847;SDS011;26570;50.962;5.340;2024-03-08T09:46:26;22.80;;;13.63;;
40847;SDS011;26570;50.962;5.340;2024-03-08T09:49:11;26.87;;;13.17;;
40847;SDS011;26570;50.962;5.340;2024-03-08T09:51:56;22.70;;;14.10;;
40847;SDS011;26570;50.962;5.340;2024-03-08T09:54:42;27.60;;;14.60;;
40847;SDS011;26570;50.962;5.340;2024-03-08T09:57:28;21.53;;;13.43;;
40847;SDS011;26570;50.962;5.340;2024-03-08T10:00:13;25.93;;;13.97;;
40847;SDS011;26570;50.962;5.340;2024-03-08T10:03:08;23.90;;;12.70;;
40847;SDS011;26570;50.962;5.340;2024-03-08T10:05:56;23.93;;;13.87;;
40847;SDS011;26570;50.962;5.340;2024-03-08T10:08:44;22.00;;;13.20;;
40847;SDS011;26570;50.962;5.340;2024-03-08T10:11:29;22.77;;;14.13;;
40847;SDS011;26570;50.962;5.340;2024-03-08T10:14:15;24.37;;;13.80;;
40847;SDS011;26570;50.962;5.340;2024-03-08T10:17:00;25.73;;;13.53;;
40847;SDS011;26570;50.962;5.340;2024-03-08T10:19:52;29.10;;;13.13;;
40847;SDS011;26570;50.962;5.340;2024-03-08T10:22:37;23.27;;;14.90;;
40847;SDS011;26570;50.962;5.340;2024-03-08T10:25:22;25.33;;;13.53;;
40847;SDS011;26570;50.962;5.340;2024-03-08T10:28:08;21.77;;;13.87;;
40847;SDS011;26570;50.962;5.340;2024-03-08T10:30:55;23.87;;;13.00;;
40847;SDS011;26570;50.962;5.340;2024-03-08T10:33:42;20.23;;;13.63;;
40847;SDS011;26570;50.962;5.340;2024-03-08T10:36:28;23.93;;;13.83;;
40847;SDS011;26570;50.962;5.340;2024-03-08T10:39:24;22.20;;;14.53;;
40847;SDS011;26570;50.962;5.340;2024-03-08T10:42:10;25.83;;;14.50;;
40847;SDS011;26570;50.962;5.340;2024-03-08T10:45:05;21.77;;;13.37;;
40847;SDS011;26570;50.962;5.340;2024-03-08T10:51:09;22.10;;;13.57;;
40847;SDS011;26570;50.962;5.340;2024-03-08T10:53:57;23.77;;;14.00;;
40847;SDS011;26570;50.962;5.340;2024-03-08T10:56:44;22.03;;;13.60;;
40847;SDS011;26570;50.962;5.340;2024-03-08T10:59:30;25.43;;;14.20;;
40847;SDS011;26570;50.962;5.340;2024-03-08T11:02:16;19.63;;;12.83;;
40847;SDS011;26570;50.962;5.340;2024-03-08T11:05:03;23.97;;;12.97;;
40847;SDS011;26570;50.962;5.340;2024-03-08T11:07:49;22.90;;;13.77;;
40847;SDS011;26570;50.962;5.340;2024-03-08T11:10:45;27.97;;;15.97;;
40847;SDS011;26570;50.962;5.340;2024-03-08T11:13:40;22.57;;;13.70;;
40847;SDS011;26570;50.962;5.340;2024-03-08T11:22:02;23.17;;;14.00;;
40847;SDS011;26570;50.962;5.340;2024-03-08T11:24:49;24.17;;;13.70;;
40847;SDS011;26570;50.962;5.340;2024-03-08T11:27:34;22.80;;;14.23;;
40847;SDS011;26570;50.962;5.340;2024-03-08T11:30:21;22.60;;;13.67;;
40847;SDS011;26570;50.962;5.340;2024-03-08T11:33:12;19.83;;;12.53;;
40847;SDS011;26570;50.962;5.340;2024-03-08T11:38:56;19.97;;;12.67;;
40847;SDS011;26570;50.962;5.340;2024-03-08T11:41:43;17.57;;;12.10;;
40847;SDS011;26570;50.962;5.340;2024-03-08T11:44:32;21.00;;;13.27;;
40847;SDS011;26570;50.962;5.340;2024-03-08T11:47:13;22.07;;;12.70;;
40847;SDS011;26570;50.962;5.340;2024-03-08T11:49:58;21.30;;;12.73;;
40847;SDS011;26570;50.962;5.340;2024-03-08T11:57:16;20.27;;;12.27;;
40847;SDS011;26570;50.962;5.340;2024-03-08T12:00:02;18.87;;;11.70;;
40847;SDS011;26570;50.962;5.340;2024-03-08T12:03:01;19.27;;;12.67;;
40847;SDS011;26570;50.962;5.340;2024-03-08T12:20:36;20.60;;;12.17;;
40847;SDS011;26570;50.962;5.340;2024-03-08T12:23:23;20.77;;;12.20;;
40847;SDS011;26570;50.962;5.340;2024-03-08T12:26:09;20.33;;;12.23;;
40847;SDS011;26570;50.962;5.340;2024-03-08T12:32:12;18.70;;;11.60;;
40847;SDS011;26570;50.962;5.340;2024-03-08T12:34:57;19.13;;;12.23;;
40847;SDS011;26570;50.962;5.340;2024-03-08T12:37:43;18.47;;;12.23;;
40847;SDS011;26570;50.962;5.340;2024-03-08T12:40:29;17.80;;;11.57;;
40847;SDS011;26570;50.962;5.340;2024-03-08T12:43:15;18.57;;;12.43;;
40847;SDS011;26570;50.962;5.340;2024-03-08T12:46:23;20.10;;;12.57;;
40847;SDS011;26570;50.962;5.340;2024-03-08T12:49:11;20.80;;;12.20;;
40847;SDS011;26570;50.962;5.340;2024-03-08T12:51:56;18.33;;;12.50;;
40847;SDS011;26570;50.962;5.340;2024-03-08T12:54:41;19.07;;;11.90;;
40847;SDS011;26570;50.962;5.340;2024-03-08T12:57:26;18.93;;;12.80;;
40847;SDS011;26570;50.962;5.340;2024-03-08T13:00:12;18.27;;;11.67;;
40847;SDS011;26570;50.962;5.340;2024-03-08T13:03:02;19.70;;;12.43;;
40847;SDS011;26570;50.962;5.340;2024-03-08T13:05:48;18.87;;;13.13;;
40847;SDS011;26570;50.962;5.340;2024-03-08T13:08:34;20.67;;;12.53;;
40847;SDS011;26570;50.962;5.340;2024-03-08T13:11:23;20.57;;;12.33;;
40847;SDS011;26570;50.962;5.340;2024-03-08T13:14:08;19.47;;;12.47;;
40847;SDS011;26570;50.962;5.340;2024-03-08T13:16:54;21.57;;;11.47;;
40847;SDS011;26570;50.962;5.340;2024-03-08T13:19:39;16.77;;;10.73;;
40847;SDS011;26570;50.962;5.340;2024-03-08T13:22:25;15.20;;;9.70;;
40847;SDS011;26570;50.962;5.340;2024-03-08T13:25:11;17.00;;;11.13;;
40847;SDS011;26570;50.962;5.340;2024-03-08T13:27:57;17.27;;;11.17;;
40847;SDS011;26570;50.962;5.340;2024-03-08T13:30:44;18.30;;;11.30;;
40847;SDS011;26570;50.962;5.340;2024-03-08T13:33:29;18.27;;;11.40;;
40847;SDS011;26570;50.962;5.340;2024-03-08T13:36:15;15.67;;;11.00;;
40847;SDS011;26570;50.962;5.340;2024-03-08T13:39:00;17.90;;;11.27;;
40847;SDS011;26570;50.962;5.340;2024-03-08T13:41:45;16.57;;;11.10;;
40847;SDS011;26570;50.962;5.340;2024-03-08T13:44:30;15.87;;;11.13;;
40847;SDS011;26570;50.962;5.340;2024-03-08T13:47:16;16.37;;;10.43;;
40847;SDS011;26570;50.962;5.340;2024-03-08T13:50:01;18.57;;;11.80;;
40847;SDS011;26570;50.962;5.340;2024-03-08T13:52:46;16.63;;;11.97;;
40847;SDS011;26570;50.962;5.340;2024-03-08T13:55:35;21.37;;;12.53;;
40847;SDS011;26570;50.962;5.340;2024-03-08T13:58:20;21.00;;;12.80;;
40847;SDS011;26570;50.962;5.340;2024-03-08T14:01:05;16.90;;;11.00;;
40847;SDS011;26570;50.962;5.340;2024-03-08T14:03:55;19.07;;;11.70;;
40847;SDS011;26570;50.962;5.340;2024-03-08T14:06:40;16.13;;;11.03;;
40847;SDS011;26570;50.962;5.340;2024-03-08T14:09:25;17.90;;;11.07;;
40847;SDS011;26570;50.962;5.340;2024-03-08T14:12:10;17.47;;;11.07;;
40847;SDS011;26570;50.962;5.340;2024-03-08T14:14:55;16.53;;;10.73;;
40847;SDS011;26570;50.962;5.340;2024-03-08T14:17:43;17.93;;;10.50;;
40847;SDS011;26570;50.962;5.340;2024-03-08T14:20:30;16.57;;;10.47;;
40847;SDS011;26570;50.962;5.340;2024-03-08T14:23:40;19.17;;;10.70;;
40847;SDS011;26570;50.962;5.340;2024-03-08T14:26:27;17.87;;;11.03;;
40847;SDS011;26570;50.962;5.340;2024-03-08T14:29:12;18.63;;;10.53;;
40847;SDS011;26570;50.962;5.340;2024-03-08T14:31:57;17.70;;;10.67;;
40847;SDS011;26570;50.962;5.340;2024-03-08T14:34:43;16.00;;;10.70;;
40847;SDS011;26570;50.962;5.340;2024-03-08T14:37:28;18.70;;;10.63;;
40847;SDS011;26570;50.962;5.340;2024-03-08T14:40:13;16.20;;;10.30;;
40847;SDS011;26570;50.962;5.340;2024-03-08T14:42:59;14.77;;;10.47;;
40847;SDS011;26570;50.962;5.340;2024-03-08T14:45:44;15.87;;;10.83;;
40847;SDS011;26570;50.962;5.340;2024-03-08T14:48:31;15.13;;;10.83;;
40847;SDS011;26570;50.962;5.340;2024-03-08T14:51:17;17.50;;;10.50;;
40847;SDS011;26570;50.962;5.340;2024-03-08T14:54:05;18.53;;;11.50;;
40847;SDS011;26570;50.962;5.340;2024-03-08T14:56:50;14.47;;;10.93;;
40847;SDS011;26570;50.962;5.340;2024-03-08T14:59:35;16.83;;;11.17;;
40847;SDS011;26570;50.962;5.340;2024-03-08T15:02:22;19.50;;;10.73;;
40847;SDS011;26570;50.962;5.340;2024-03-08T15:05:07;18.40;;;10.77;;
40847;SDS011;26570;50.962;5.340;2024-03-08T15:08:17;15.10;;;10.60;;
40847;SDS011;26570;50.962;5.340;2024-03-08T15:11:08;18.23;;;9.73;;
40847;SDS011;26570;50.962;5.340;2024-03-08T15:13:53;15.00;;;9.47;;
40847;SDS011;26570;50.962;5.340;2024-03-08T15:17:00;16.00;;;9.77;;
40847;SDS011;26570;50.962;5.340;2024-03-08T15:19:51;15.13;;;9.67;;
40847;SDS011;26570;50.962;5.340;2024-03-08T15:22:37;17.33;;;9.87;;
40847;SDS011;26570;50.962;5.340;2024-03-08T15:25:23;16.17;;;9.93;;
40847;SDS011;26570;50.962;5.340;2024-03-08T15:28:11;15.13;;;9.33;;
40847;SDS011;26570;50.962;5.340;2024-03-08T15:30:59;14.43;;;9.40;;
40847;SDS011;26570;50.962;5.340;2024-03-08T15:33:49;14.60;;;9.00;;
40847;SDS011;26570;50.962;5.340;2024-03-08T15:36:36;14.13;;;8.93;;
40847;SDS011;26570;50.962;5.340;2024-03-08T15:39:21;19.63;;;9.63;;
40847;SDS011;26570;50.962;5.340;2024-03-08T15:42:08;19.10;;;9.50;;
40847;SDS011;26570;50.962;5.340;2024-03-08T15:44:55;13.67;;;9.00;;
40847;SDS011;26570;50.962;5.340;2024-03-08T15:47:40;15.37;;;8.77;;
40847;SDS011;26570;50.962;5.340;2024-03-08T15:50:26;16.07;;;9.03;;
40847;SDS011;26570;50.962;5.340;2024-03-08T15:53:11;18.63;;;8.67;;
40847;SDS011;26570;50.962;5.340;2024-03-08T15:55:57;16.37;;;10.43;;
40847;SDS011;26570;50.962;5.340;2024-03-08T15:58:42;14.63;;;9.03;;
40847;SDS011;26570;50.962;5.340;2024-03-08T16:01:27;16.53;;;9.00;;
40847;SDS011;26570;50.962;5.340;2024-03-08T16:04:12;19.13;;;9.10;;
40847;SDS011;26570;50.962;5.340;2024-03-08T16:06:57;15.67;;;9.23;;
40847;SDS011;26570;50.962;5.340;2024-03-08T16:09:43;17.27;;;8.77;;
40847;SDS011;26570;50.962;5.340;2024-03-08T16:12:29;14.73;;;10.13;;
40847;SDS011;26570;50.962;5.340;2024-03-08T16:15:14;16.10;;;9.40;;
40847;SDS011;26570;50.962;5.340;2024-03-08T16:17:59;21.97;;;10.27;;
40847;SDS011;26570;50.962;5.340;2024-03-08T16:20:46;15.47;;;9.77;;
40847;SDS011;26570;50.962;5.340;2024-03-08T16:23:54;17.20;;;9.03;;
40847;SDS011;26570;50.962;5.340;2024-03-08T16:27:01;15.10;;;9.10;;
40847;SDS011;26570;50.962;5.340;2024-03-08T16:30:12;14.50;;;8.83;;
40847;SDS011;26570;50.962;5.340;2024-03-08T16:33:05;17.65;;;10.93;;
40847;SDS011;26570;50.962;5.340;2024-03-08T16:35:53;19.70;;;9.60;;
40847;SDS011;26570;50.962;5.340;2024-03-08T16:38:38;16.27;;;9.30;;
40847;SDS011;26570;50.962;5.340;2024-03-08T16:41:25;17.73;;;9.30;;
40847;SDS011;26570;50.962;5.340;2024-03-08T16:44:10;16.40;;;8.87;;
40847;SDS011;26570;50.962;5.340;2024-03-08T16:47:17;17.10;;;9.33;;
40847;SDS011;26570;50.962;5.340;2024-03-08T16:50:09;16.97;;;8.83;;
40847;SDS011;26570;50.962;5.340;2024-03-08T16:59:43;17.13;;;10.03;;
40847;SDS011;26570;50.962;5.340;2024-03-08T17:07:29;17.73;;;10.17;;
40847;SDS011;26570;50.962;5.340;2024-03-08T17:10:19;20.53;;;10.50;;
40847;SDS011;26570;50.962;5.340;2024-03-08T17:13:07;16.37;;;10.10;;
40847;SDS011;26570;50.962;5.340;2024-03-08T17:15:52;15.80;;;9.60;;
40847;SDS011;26570;50.962;5.340;2024-03-08T17:18:37;18.83;;;9.57;;
40847;SDS011;26570;50.962;5.340;2024-03-08T17:21:25;23.17;;;11.17;;
40847;SDS011;26570;50.962;5.340;2024-03-08T17:24:13;15.97;;;9.50;;